sensor_id;sensor_type;location;lat;lon;timestamp;pressure;altitude;pressure_sealevel;temperature;humidity
61014;BME280;46899;47.542;19.082;2023-03-14T00:00:48;99713.00;;;6.92;63.55
61014;BME280;46899;47.542;19.082;2023-03-14T00:03:50;99707.16;;;6.85;63.81
61014;BME280;46899;47.542;19.082;2023-03-14T00:06:53;99696.72;;;6.88;63.43
61014;BME280;46899;47.542;19.082;2023-03-14T00:09:56;99691.66;;;6.85;63.42
61014;BME280;46899;47.542;19.082;2023-03-14T00:12:58;99688.19;;;6.86;63.53
61014;BME280;46899;47.542;19.082;2023-03-14T00:16:11;99688.09;;;6.89;63.36
61014;BME280;46899;47.542;19.082;2023-03-14T00:19:14;99691.84;;;6.79;64.17
61014;BME280;46899;47.542;19.082;2023-03-14T00:22:17;99684.44;;;6.67;64.84
61014;BME280;46899;47.542;19.082;2023-03-14T00:25:20;99679.41;;;6.63;65.48
61014;BME280;46899;47.542;19.082;2023-03-14T00:28:23;99660.75;;;6.53;66.02
61014;BME280;46899;47.542;19.082;2023-03-14T00:31:25;99664.13;;;6.55;66.00
61014;BME280;46899;47.542;19.082;2023-03-14T00:34:28;99658.16;;;6.53;65.65
61014;BME280;46899;47.542;19.082;2023-03-14T00:37:31;99657.37;;;6.51;66.32
61014;BME280;46899;47.542;19.082;2023-03-14T00:40:38;99645.34;;;6.50;66.60
61014;BME280;46899;47.542;19.082;2023-03-14T00:43:40;99638.28;;;6.55;66.70
61014;BME280;46899;47.542;19.082;2023-03-14T00:46:43;99640.00;;;6.56;66.41
61014;BME280;46899;47.542;19.082;2023-03-14T00:49:46;99641.06;;;6.49;67.15
61014;BME280;46899;47.542;19.082;2023-03-14T00:52:49;99641.34;;;6.40;67.49
61014;BME280;46899;47.542;19.082;2023-03-14T00:55:51;99637.16;;;6.36;68.92
61014;BME280;46899;47.542;19.082;2023-03-14T00:58:55;99623.44;;;6.34;69.32
61014;BME280;46899;47.542;19.082;2023-03-14T01:01:58;99628.81;;;6.27;69.59
61014;BME280;46899;47.542;19.082;2023-03-14T01:05:01;99632.53;;;6.18;69.78
61014;BME280;46899;47.542;19.082;2023-03-14T01:08:04;99621.34;;;6.17;69.49
61014;BME280;46899;47.542;19.082;2023-03-14T01:11:09;99614.38;;;6.21;69.82
61014;BME280;46899;47.542;19.082;2023-03-14T01:14:13;99617.19;;;6.41;68.11
61014;BME280;46899;47.542;19.082;2023-03-14T01:17:16;99609.66;;;6.34;68.01
61014;BME280;46899;47.542;19.082;2023-03-14T01:20:18;99616.88;;;6.22;69.39
61014;BME280;46899;47.542;19.082;2023-03-14T01:23:21;99601.44;;;6.21;69.45
61014;BME280;46899;47.542;19.082;2023-03-14T01:26:24;99585.28;;;6.14;71.00
61014;BME280;46899;47.542;19.082;2023-03-14T01:29:27;99583.78;;;6.07;70.12
61014;BME280;46899;47.542;19.082;2023-03-14T01:32:30;99583.19;;;5.98;70.32
61014;BME280;46899;47.542;19.082;2023-03-14T01:35:33;99567.88;;;5.92;71.04
61014;BME280;46899;47.542;19.082;2023-03-14T01:38:36;99563.78;;;5.83;71.37
61014;BME280;46899;47.542;19.082;2023-03-14T01:41:40;99565.50;;;5.84;71.57
61014;BME280;46899;47.542;19.082;2023-03-14T01:44:56;99547.41;;;5.86;72.00
61014;BME280;46899;47.542;19.082;2023-03-14T01:47:59;99560.19;;;5.89;71.24
61014;BME280;46899;47.542;19.082;2023-03-14T01:51:01;99548.94;;;5.91;71.62
61014;BME280;46899;47.542;19.082;2023-03-14T01:54:06;99532.03;;;6.10;70.49
61014;BME280;46899;47.542;19.082;2023-03-14T01:57:11;99528.78;;;6.04;70.46
61014;BME280;46899;47.542;19.082;2023-03-14T02:00:18;99522.25;;;6.20;70.06
61014;BME280;46899;47.542;19.082;2023-03-14T02:03:22;99527.72;;;6.11;70.77
61014;BME280;46899;47.542;19.082;2023-03-14T02:06:29;99523.75;;;6.27;69.65
61014;BME280;46899;47.542;19.082;2023-03-14T02:09:34;99524.53;;;6.31;69.66
61014;BME280;46899;47.542;19.082;2023-03-14T02:12:38;99507.28;;;6.57;68.29
61014;BME280;46899;47.542;19.082;2023-03-14T02:15:41;99496.94;;;6.59;68.69
61014;BME280;46899;47.542;19.082;2023-03-14T02:18:44;99497.87;;;6.56;68.64
61014;BME280;46899;47.542;19.082;2023-03-14T02:21:49;99487.78;;;6.49;68.91
61014;BME280;46899;47.542;19.082;2023-03-14T02:28:11;99476.34;;;6.30;69.85
61014;BME280;46899;47.542;19.082;2023-03-14T02:31:15;99471.88;;;6.35;70.06
61014;BME280;46899;47.542;19.082;2023-03-14T02:34:18;99469.59;;;6.26;70.40
61014;BME280;46899;47.542;19.082;2023-03-14T02:37:21;99464.75;;;6.41;70.05
61014;BME280;46899;47.542;19.082;2023-03-14T02:40:29;99453.69;;;6.38;70.22
61014;BME280;46899;47.542;19.082;2023-03-14T02:43:31;99451.41;;;6.29;70.88
61014;BME280;46899;47.542;19.082;2023-03-14T02:46:35;99452.06;;;6.35;71.09
61014;BME280;46899;47.542;19.082;2023-03-14T02:49:38;99451.28;;;6.32;71.13
61014;BME280;46899;47.542;19.082;2023-03-14T02:52:40;99465.13;;;6.31;71.54
61014;BME280;46899;47.542;19.082;2023-03-14T02:55:49;99448.22;;;6.20;72.06
61014;BME280;46899;47.542;19.082;2023-03-14T02:58:52;99440.69;;;6.14;72.51
61014;BME280;46899;47.542;19.082;2023-03-14T03:01:55;99440.69;;;6.14;72.77
61014;BME280;46899;47.542;19.082;2023-03-14T03:04:59;99421.84;;;6.11;73.41
61014;BME280;46899;47.542;19.082;2023-03-14T03:08:02;99419.16;;;6.14;73.10
61014;BME280;46899;47.542;19.082;2023-03-14T03:11:05;99419.75;;;6.22;72.65
61014;BME280;46899;47.542;19.082;2023-03-14T03:14:08;99425.44;;;6.33;72.17
61014;BME280;46899;47.542;19.082;2023-03-14T03:17:11;99418.16;;;6.44;71.96
61014;BME280;46899;47.542;19.082;2023-03-14T03:20:13;99428.56;;;6.43;71.86
61014;BME280;46899;47.542;19.082;2023-03-14T03:23:16;99437.13;;;6.43;72.02
61014;BME280;46899;47.542;19.082;2023-03-14T03:26:18;99422.31;;;6.48;72.83
61014;BME280;46899;47.542;19.082;2023-03-14T03:29:21;99415.03;;;6.35;72.41
61014;BME280;46899;47.542;19.082;2023-03-14T03:32:24;99410.25;;;6.24;73.17
61014;BME280;46899;47.542;19.082;2023-03-14T03:35:27;99415.72;;;6.13;74.02
61014;BME280;46899;47.542;19.082;2023-03-14T03:38:30;99417.06;;;5.99;73.44
61014;BME280;46899;47.542;19.082;2023-03-14T03:41:33;99414.56;;;5.96;73.62
61014;BME280;46899;47.542;19.082;2023-03-14T03:44:36;99423.66;;;5.80;74.71
61014;BME280;46899;47.542;19.082;2023-03-14T03:47:39;99404.41;;;5.62;75.66
61014;BME280;46899;47.542;19.082;2023-03-14T03:50:46;99406.50;;;5.49;76.23
61014;BME280;46899;47.542;19.082;2023-03-14T03:53:49;99404.41;;;5.34;77.90
61014;BME280;46899;47.542;19.082;2023-03-14T03:56:52;99401.38;;;5.20;78.63
61014;BME280;46899;47.542;19.082;2023-03-14T03:59:55;99396.44;;;5.13;79.52
61014;BME280;46899;47.542;19.082;2023-03-14T04:02:57;99398.41;;;5.03;80.19
61014;BME280;46899;47.542;19.082;2023-03-14T04:06:04;99396.97;;;4.93;81.52
61014;BME280;46899;47.542;19.082;2023-03-14T04:09:08;99391.75;;;4.96;81.45
61014;BME280;46899;47.542;19.082;2023-03-14T04:12:11;99391.75;;;4.96;83.19
61014;BME280;46899;47.542;19.082;2023-03-14T04:15:14;99384.28;;;4.85;85.73
61014;BME280;46899;47.542;19.082;2023-03-14T04:18:18;99384.75;;;4.69;86.32
61014;BME280;46899;47.542;19.082;2023-03-14T04:21:20;99379.59;;;4.69;85.78
61014;BME280;46899;47.542;19.082;2023-03-14T04:24:23;99398.69;;;4.93;85.32
61014;BME280;46899;47.542;19.082;2023-03-14T04:27:26;99384.63;;;4.73;87.00
61014;BME280;46899;47.542;19.082;2023-03-14T04:30:29;99390.13;;;4.61;89.92
61014;BME280;46899;47.542;19.082;2023-03-14T04:33:32;99386.97;;;4.50;90.16
61014;BME280;46899;47.542;19.082;2023-03-14T04:36:35;99367.41;;;4.43;90.46
61014;BME280;46899;47.542;19.082;2023-03-14T04:39:42;99358.69;;;4.49;89.99
61014;BME280;46899;47.542;19.082;2023-03-14T04:42:46;99364.97;;;4.71;88.96
61014;BME280;46899;47.542;19.082;2023-03-14T04:45:49;99382.44;;;4.91;87.84
61014;BME280;46899;47.542;19.082;2023-03-14T04:48:52;99390.38;;;4.83;88.35
61014;BME280;46899;47.542;19.082;2023-03-14T04:51:54;99395.69;;;4.77;88.52
61014;BME280;46899;47.542;19.082;2023-03-14T04:54:58;99395.03;;;4.70;89.22
61014;BME280;46899;47.542;19.082;2023-03-14T04:58:00;99393.31;;;4.71;88.80
61014;BME280;46899;47.542;19.082;2023-03-14T05:01:04;99398.59;;;4.65;89.44
61014;BME280;46899;47.542;19.082;2023-03-14T05:04:07;99395.34;;;4.58;90.05
61014;BME280;46899;47.542;19.082;2023-03-14T05:07:10;99383.44;;;4.54;91.75
61014;BME280;46899;47.542;19.082;2023-03-14T05:10:16;99377.44;;;4.54;92.26
61014;BME280;46899;47.542;19.082;2023-03-14T05:13:19;99374.69;;;4.60;93.68
61014;BME280;46899;47.542;19.082;2023-03-14T05:16:21;99372.91;;;4.63;94.42
61014;BME280;46899;47.542;19.082;2023-03-14T05:19:24;99369.28;;;4.69;94.34
61014;BME280;46899;47.542;19.082;2023-03-14T05:22:27;99358.03;;;4.73;94.02
61014;BME280;46899;47.542;19.082;2023-03-14T05:25:30;99365.19;;;4.93;92.95
61014;BME280;46899;47.542;19.082;2023-03-14T05:28:34;99356.13;;;5.09;92.42
61014;BME280;46899;47.542;19.082;2023-03-14T05:31:37;99366.78;;;5.27;91.16
61014;BME280;46899;47.542;19.082;2023-03-14T05:34:40;99356.91;;;5.68;88.80
61014;BME280;46899;47.542;19.082;2023-03-14T05:37:43;99362.84;;;5.99;86.79
61014;BME280;46899;47.542;19.082;2023-03-14T05:40:48;99364.72;;;6.20;85.76
61014;BME280;46899;47.542;19.082;2023-03-14T05:43:51;99362.81;;;6.51;84.87
61014;BME280;46899;47.542;19.082;2023-03-14T05:46:54;99353.13;;;6.81;82.47
61014;BME280;46899;47.542;19.082;2023-03-14T05:49:57;99346.50;;;7.20;79.31
61014;BME280;46899;47.542;19.082;2023-03-14T05:53:01;99345.16;;;7.55;75.98
61014;BME280;46899;47.542;19.082;2023-03-14T05:56:04;99337.13;;;8.04;72.99
61014;BME280;46899;47.542;19.082;2023-03-14T05:59:07;99342.47;;;8.42;68.94
61014;BME280;46899;47.542;19.082;2023-03-14T06:02:13;99341.94;;;8.74;67.45
61014;BME280;46899;47.542;19.082;2023-03-14T06:05:17;99348.94;;;9.11;65.35
61014;BME280;46899;47.542;19.082;2023-03-14T06:08:20;99353.91;;;9.52;64.42
61014;BME280;46899;47.542;19.082;2023-03-14T06:11:23;99354.03;;;10.04;60.49
61014;BME280;46899;47.542;19.082;2023-03-14T06:14:25;99358.84;;;12.52;53.17
61014;BME280;46899;47.542;19.082;2023-03-14T06:17:28;99348.03;;;16.44;40.83
61014;BME280;46899;47.542;19.082;2023-03-14T06:20:38;99350.03;;;19.42;33.95
61014;BME280;46899;47.542;19.082;2023-03-14T06:23:45;99347.63;;;21.58;30.27
61014;BME280;46899;47.542;19.082;2023-03-14T06:26:47;99342.28;;;21.13;30.04
61014;BME280;46899;47.542;19.082;2023-03-14T06:29:50;99344.59;;;21.26;29.34
61014;BME280;46899;47.542;19.082;2023-03-14T06:32:53;99343.31;;;18.57;33.03
61014;BME280;46899;47.542;19.082;2023-03-14T06:35:56;99361.03;;;16.11;37.25
61014;BME280;46899;47.542;19.082;2023-03-14T06:38:58;99348.62;;;13.88;42.21
61014;BME280;46899;47.542;19.082;2023-03-14T06:42:02;99349.75;;;12.87;45.48
61014;BME280;46899;47.542;19.082;2023-03-14T06:45:05;99347.34;;;12.40;47.14
61014;BME280;46899;47.542;19.082;2023-03-14T06:48:07;99347.00;;;12.16;48.16
61014;BME280;46899;47.542;19.082;2023-03-14T06:51:10;99336.16;;;12.08;48.47
61014;BME280;46899;47.542;19.082;2023-03-14T06:54:13;99338.41;;;11.69;49.60
61014;BME280;46899;47.542;19.082;2023-03-14T06:57:18;99341.56;;;12.05;49.17
61014;BME280;46899;47.542;19.082;2023-03-14T07:00:22;99342.78;;;11.84;49.99
61014;BME280;46899;47.542;19.082;2023-03-14T07:03:27;99337.06;;;12.23;48.92
61014;BME280;46899;47.542;19.082;2023-03-14T07:06:30;99340.25;;;12.28;48.95
61014;BME280;46899;47.542;19.082;2023-03-14T07:09:33;99340.28;;;12.12;49.69
61014;BME280;46899;47.542;19.082;2023-03-14T07:12:36;99335.66;;;12.17;49.92
61014;BME280;46899;47.542;19.082;2023-03-14T07:15:39;99331.22;;;12.04;50.51
61014;BME280;46899;47.542;19.082;2023-03-14T07:18:42;99324.72;;;12.11;49.97
61014;BME280;46899;47.542;19.082;2023-03-14T07:21:45;99337.78;;;12.55;49.25
61014;BME280;46899;47.542;19.082;2023-03-14T07:24:48;99327.66;;;12.92;48.32
61014;BME280;46899;47.542;19.082;2023-03-14T07:27:51;99335.00;;;12.72;48.61
61014;BME280;46899;47.542;19.082;2023-03-14T07:30:54;99329.81;;;12.28;49.78
61014;BME280;46899;47.542;19.082;2023-03-14T07:33:57;99324.00;;;12.53;49.65
61014;BME280;46899;47.542;19.082;2023-03-14T07:37:02;99324.00;;;13.51;47.37
61014;BME280;46899;47.542;19.082;2023-03-14T07:40:07;99315.72;;;14.11;45.47
61014;BME280;46899;47.542;19.082;2023-03-14T07:43:12;99324.94;;;14.93;43.52
61014;BME280;46899;47.542;19.082;2023-03-14T07:46:15;99317.66;;;15.47;42.50
61014;BME280;46899;47.542;19.082;2023-03-14T07:49:18;99303.94;;;15.67;42.08
61014;BME280;46899;47.542;19.082;2023-03-14T07:52:21;99307.78;;;15.98;41.15
61014;BME280;46899;47.542;19.082;2023-03-14T07:55:23;99305.44;;;15.59;42.18
61014;BME280;46899;47.542;19.082;2023-03-14T07:58:26;99302.84;;;15.34;42.72
61014;BME280;46899;47.542;19.082;2023-03-14T08:01:29;99291.09;;;15.39;43.06
61014;BME280;46899;47.542;19.082;2023-03-14T08:04:32;99293.28;;;15.58;42.72
61014;BME280;46899;47.542;19.082;2023-03-14T08:07:35;99291.91;;;16.00;42.20
61014;BME280;46899;47.542;19.082;2023-03-14T08:10:37;99291.19;;;16.32;41.21
61014;BME280;46899;47.542;19.082;2023-03-14T08:13:40;99285.50;;;16.50;41.02
61014;BME280;46899;47.542;19.082;2023-03-14T08:16:43;99274.94;;;16.84;40.27
61014;BME280;46899;47.542;19.082;2023-03-14T08:19:45;99262.66;;;16.63;40.85
61014;BME280;46899;47.542;19.082;2023-03-14T08:22:51;99269.94;;;16.92;40.26
61014;BME280;46899;47.542;19.082;2023-03-14T08:25:54;99268.72;;;17.07;40.28
61014;BME280;46899;47.542;19.082;2023-03-14T08:28:56;99270.91;;;17.45;39.65
61014;BME280;46899;47.542;19.082;2023-03-14T08:31:59;99272.13;;;17.95;38.55
61014;BME280;46899;47.542;19.082;2023-03-14T08:35:02;99271.19;;;18.17;38.16
61014;BME280;46899;47.542;19.082;2023-03-14T08:38:04;99259.28;;;19.24;36.60
61014;BME280;46899;47.542;19.082;2023-03-14T08:41:07;99253.81;;;19.75;34.93
61014;BME280;46899;47.542;19.082;2023-03-14T08:44:10;99253.25;;;20.19;34.03
61014;BME280;46899;47.542;19.082;2023-03-14T08:47:20;99251.66;;;22.26;31.05
61014;BME280;46899;47.542;19.082;2023-03-14T08:50:23;99260.56;;;22.61;30.03
61014;BME280;46899;47.542;19.082;2023-03-14T08:53:26;99248.56;;;19.85;34.23
61014;BME280;46899;47.542;19.082;2023-03-14T08:56:29;99245.47;;;18.71;36.78
61014;BME280;46899;47.542;19.082;2023-03-14T08:59:31;99231.47;;;17.45;39.35
61014;BME280;46899;47.542;19.082;2023-03-14T09:02:34;99224.75;;;16.98;40.46
61014;BME280;46899;47.542;19.082;2023-03-14T09:05:36;99211.16;;;17.47;39.95
61014;BME280;46899;47.542;19.082;2023-03-14T09:08:39;99203.38;;;17.46;39.52
61014;BME280;46899;47.542;19.082;2023-03-14T09:11:41;99215.31;;;17.18;40.07
61014;BME280;46899;47.542;19.082;2023-03-14T09:14:44;99205.75;;;17.06;40.33
61014;BME280;46899;47.542;19.082;2023-03-14T09:17:46;99205.56;;;16.98;40.19
61014;BME280;46899;47.542;19.082;2023-03-14T09:20:49;99208.53;;;16.93;40.17
61014;BME280;46899;47.542;19.082;2023-03-14T09:23:52;99203.41;;;16.81;40.62
61014;BME280;46899;47.542;19.082;2023-03-14T09:26:55;99195.06;;;16.54;41.33
61014;BME280;46899;47.542;19.082;2023-03-14T09:29:59;99193.13;;;17.00;40.97
61014;BME280;46899;47.542;19.082;2023-03-14T09:33:01;99186.37;;;17.18;40.87
61014;BME280;46899;47.542;19.082;2023-03-14T09:36:04;99173.56;;;17.36;40.72
61014;BME280;46899;47.542;19.082;2023-03-14T09:39:07;99176.09;;;17.15;40.50
61014;BME280;46899;47.542;19.082;2023-03-14T09:42:13;99173.91;;;17.31;40.30
61014;BME280;46899;47.542;19.082;2023-03-14T09:48:32;99173.03;;;17.42;40.32
61014;BME280;46899;47.542;19.082;2023-03-14T09:51:35;99166.00;;;17.31;40.89
61014;BME280;46899;47.542;19.082;2023-03-14T09:57:43;99148.09;;;17.89;39.33
61014;BME280;46899;47.542;19.082;2023-03-14T10:00:49;99148.75;;;18.32;38.87
61014;BME280;46899;47.542;19.082;2023-03-14T10:03:53;99140.53;;;18.25;38.90
61014;BME280;46899;47.542;19.082;2023-03-14T10:06:56;99121.94;;;18.17;39.17
61014;BME280;46899;47.542;19.082;2023-03-14T10:09:59;99112.47;;;18.45;39.19
61014;BME280;46899;47.542;19.082;2023-03-14T10:16:16;99093.19;;;18.94;38.40
61014;BME280;46899;47.542;19.082;2023-03-14T10:19:19;99096.53;;;18.86;38.46
61014;BME280;46899;47.542;19.082;2023-03-14T10:22:23;99082.66;;;19.03;38.51
61014;BME280;46899;47.542;19.082;2023-03-14T10:25:27;99081.97;;;19.68;37.57
61014;BME280;46899;47.542;19.082;2023-03-14T10:28:47;99062.38;;;19.71;37.43
61014;BME280;46899;47.542;19.082;2023-03-14T10:32:10;99055.78;;;19.94;36.73
61014;BME280;46899;47.542;19.082;2023-03-14T10:38:18;99053.28;;;20.57;36.15
61014;BME280;46899;47.542;19.082;2023-03-14T10:41:25;99044.25;;;20.94;34.15
61014;BME280;46899;47.542;19.082;2023-03-14T10:44:28;99044.31;;;21.12;33.77
61014;BME280;46899;47.542;19.082;2023-03-14T10:47:31;99044.34;;;20.85;33.96
61014;BME280;46899;47.542;19.082;2023-03-14T10:50:35;99046.59;;;20.80;33.81
61014;BME280;46899;47.542;19.082;2023-03-14T10:56:40;99034.22;;;20.98;34.00
61014;BME280;46899;47.542;19.082;2023-03-14T10:59:43;99022.50;;;21.00;33.59
61014;BME280;46899;47.542;19.082;2023-03-14T11:06:27;99019.78;;;20.92;34.11
61014;BME280;46899;47.542;19.082;2023-03-14T11:09:33;99006.56;;;20.75;34.02
61014;BME280;46899;47.542;19.082;2023-03-14T11:31:31;98968.88;;;20.90;33.77
61014;BME280;46899;47.542;19.082;2023-03-14T11:34:48;98966.22;;;21.08;33.45
61014;BME280;46899;47.542;19.082;2023-03-14T11:38:00;98957.59;;;21.24;33.43
61014;BME280;46899;47.542;19.082;2023-03-14T11:41:09;98937.25;;;21.24;33.19
61014;BME280;46899;47.542;19.082;2023-03-14T11:44:22;98938.44;;;20.86;34.30
61014;BME280;46899;47.542;19.082;2023-03-14T11:47:32;98931.75;;;21.00;33.96
61014;BME280;46899;47.542;19.082;2023-03-14T11:50:39;98921.69;;;21.03;33.99
61014;BME280;46899;47.542;19.082;2023-03-14T11:53:55;98918.59;;;21.08;34.28
61014;BME280;46899;47.542;19.082;2023-03-14T11:57:14;98883.94;;;21.45;33.16
61014;BME280;46899;47.542;19.082;2023-03-14T12:03:42;98907.41;;;21.40;33.03
61014;BME280;46899;47.542;19.082;2023-03-14T12:06:50;98902.59;;;21.35;33.43
61014;BME280;46899;47.542;19.082;2023-03-14T12:09:53;98902.22;;;21.30;33.17
61014;BME280;46899;47.542;19.082;2023-03-14T12:12:57;98892.00;;;21.35;33.17
61014;BME280;46899;47.542;19.082;2023-03-14T12:16:00;98903.47;;;21.18;33.16
61014;BME280;46899;47.542;19.082;2023-03-14T12:22:26;98893.19;;;21.15;33.09
61014;BME280;46899;47.542;19.082;2023-03-14T12:25:32;98886.25;;;21.14;32.82
61014;BME280;46899;47.542;19.082;2023-03-14T12:28:36;98870.47;;;21.04;32.39
61014;BME280;46899;47.542;19.082;2023-03-14T12:31:42;98865.72;;;20.90;32.97
61014;BME280;46899;47.542;19.082;2023-03-14T12:34:46;98869.09;;;20.75;33.21
61014;BME280;46899;47.542;19.082;2023-03-14T12:37:48;98861.28;;;20.91;33.15
61014;BME280;46899;47.542;19.082;2023-03-14T12:50:37;98843.78;;;20.98;33.67
61014;BME280;46899;47.542;19.082;2023-03-14T13:00:17;98830.84;;;20.26;34.31
61014;BME280;46899;47.542;19.082;2023-03-14T13:03:21;98835.00;;;20.28;34.43
61014;BME280;46899;47.542;19.082;2023-03-14T13:13:22;98829.88;;;19.37;38.23
61014;BME280;46899;47.542;19.082;2023-03-14T13:16:25;98816.94;;;19.34;37.97
61014;BME280;46899;47.542;19.082;2023-03-14T13:19:31;98819.47;;;19.36;37.52
61014;BME280;46899;47.542;19.082;2023-03-14T13:22:35;98820.69;;;19.32;37.58
61014;BME280;46899;47.542;19.082;2023-03-14T13:25:39;98826.41;;;19.37;36.89
61014;BME280;46899;47.542;19.082;2023-03-14T13:28:41;98828.16;;;19.46;36.37
61014;BME280;46899;47.542;19.082;2023-03-14T13:31:45;98842.66;;;19.23;36.84
61014;BME280;46899;47.542;19.082;2023-03-14T13:34:48;98843.25;;;19.17;36.90
61014;BME280;46899;47.542;19.082;2023-03-14T13:37:58;98858.72;;;19.02;37.11
61014;BME280;46899;47.542;19.082;2023-03-14T13:41:12;98844.72;;;18.92;37.82
61014;BME280;46899;47.542;19.082;2023-03-14T13:44:16;98856.25;;;18.81;37.97
61014;BME280;46899;47.542;19.082;2023-03-14T13:47:20;98856.41;;;18.70;39.47
61014;BME280;46899;47.542;19.082;2023-03-14T13:50:23;98848.78;;;18.86;38.90
61014;BME280;46899;47.542;19.082;2023-03-14T13:53:25;98851.81;;;18.82;38.74
61014;BME280;46899;47.542;19.082;2023-03-14T13:56:30;98852.22;;;18.77;39.09
61014;BME280;46899;47.542;19.082;2023-03-14T13:59:34;98848.88;;;18.94;38.92
61014;BME280;46899;47.542;19.082;2023-03-14T14:02:37;98852.88;;;18.98;38.44
61014;BME280;46899;47.542;19.082;2023-03-14T14:05:40;98850.97;;;18.91;38.46
61014;BME280;46899;47.542;19.082;2023-03-14T14:08:46;98852.09;;;18.88;38.42
61014;BME280;46899;47.542;19.082;2023-03-14T14:11:55;98852.56;;;19.11;38.46
61014;BME280;46899;47.542;19.082;2023-03-14T14:15:18;98852.25;;;19.24;38.09
61014;BME280;46899;47.542;19.082;2023-03-14T14:18:24;98840.56;;;19.36;37.52
61014;BME280;46899;47.542;19.082;2023-03-14T14:21:28;98835.56;;;19.33;36.92
61014;BME280;46899;47.542;19.082;2023-03-14T14:24:32;98841.06;;;19.49;37.07
61014;BME280;46899;47.542;19.082;2023-03-14T14:27:38;98844.09;;;19.54;36.87
61014;BME280;46899;47.542;19.082;2023-03-14T14:30:43;98841.16;;;19.57;36.84
61014;BME280;46899;47.542;19.082;2023-03-14T14:36:48;98848.34;;;19.37;36.58
61014;BME280;46899;47.542;19.082;2023-03-14T14:39:52;98833.63;;;19.25;36.53
61014;BME280;46899;47.542;19.082;2023-03-14T14:43:02;98829.09;;;19.18;36.54
61014;BME280;46899;47.542;19.082;2023-03-14T14:46:06;98838.06;;;19.25;36.78
61014;BME280;46899;47.542;19.082;2023-03-14T14:49:12;98837.63;;;19.29;36.75
61014;BME280;46899;47.542;19.082;2023-03-14T14:52:16;98838.03;;;19.34;36.45
61014;BME280;46899;47.542;19.082;2023-03-14T14:55:21;98838.88;;;19.35;37.28
61014;BME280;46899;47.542;19.082;2023-03-14T14:58:28;98830.56;;;19.39;36.72
61014;BME280;46899;47.542;19.082;2023-03-14T15:01:33;98842.00;;;19.21;37.10
61014;BME280;46899;47.542;19.082;2023-03-14T15:04:36;98835.87;;;19.20;37.60
61014;BME280;46899;47.542;19.082;2023-03-14T15:07:39;98830.59;;;19.20;37.87
61014;BME280;46899;47.542;19.082;2023-03-14T15:10:41;98831.72;;;19.18;38.32
61014;BME280;46899;47.542;19.082;2023-03-14T15:13:44;98840.69;;;18.97;38.57
61014;BME280;46899;47.542;19.082;2023-03-14T15:16:47;98842.69;;;18.76;39.68
61014;BME280;46899;47.542;19.082;2023-03-14T15:19:50;98847.97;;;18.57;40.10
61014;BME280;46899;47.542;19.082;2023-03-14T15:22:52;98849.31;;;18.42;40.63
61014;BME280;46899;47.542;19.082;2023-03-14T15:25:55;98863.34;;;18.23;41.10
61014;BME280;46899;47.542;19.082;2023-03-14T15:28:57;98866.25;;;18.11;41.01
61014;BME280;46899;47.542;19.082;2023-03-14T15:32:00;98869.41;;;18.05;41.09
61014;BME280;46899;47.542;19.082;2023-03-14T15:35:03;98870.94;;;17.98;40.63
61014;BME280;46899;47.542;19.082;2023-03-14T15:38:08;98877.59;;;17.92;40.65
61014;BME280;46899;47.542;19.082;2023-03-14T15:41:11;98873.41;;;17.80;40.97
61014;BME280;46899;47.542;19.082;2023-03-14T15:44:14;98877.94;;;17.68;41.61
61014;BME280;46899;47.542;19.082;2023-03-14T15:47:19;98881.91;;;17.53;41.31
61014;BME280;46899;47.542;19.082;2023-03-14T15:50:25;98889.88;;;17.42;41.61
61014;BME280;46899;47.542;19.082;2023-03-14T15:53:28;98915.97;;;17.34;41.91
61014;BME280;46899;47.542;19.082;2023-03-14T15:56:30;98939.47;;;17.26;47.66
61014;BME280;46899;47.542;19.082;2023-03-14T15:59:34;98947.09;;;16.67;56.70
61014;BME280;46899;47.542;19.082;2023-03-14T16:02:37;98961.44;;;15.98;64.45
61014;BME280;46899;47.542;19.082;2023-03-14T16:05:43;98950.13;;;15.64;67.87
61014;BME280;46899;47.542;19.082;2023-03-14T16:08:45;98963.09;;;15.44;70.49
61014;BME280;46899;47.542;19.082;2023-03-14T16:11:48;98959.22;;;15.15;74.28
61014;BME280;46899;47.542;19.082;2023-03-14T16:14:51;98968.94;;;14.90;78.80
61014;BME280;46899;47.542;19.082;2023-03-14T16:17:54;98962.97;;;14.54;84.55
61014;BME280;46899;47.542;19.082;2023-03-14T16:20:58;98963.06;;;14.28;88.13
61014;BME280;46899;47.542;19.082;2023-03-14T16:24:01;98957.25;;;14.12;89.95
61014;BME280;46899;47.542;19.082;2023-03-14T16:27:04;98956.87;;;13.93;92.61
61014;BME280;46899;47.542;19.082;2023-03-14T16:30:10;98961.41;;;13.91;93.11
61014;BME280;46899;47.542;19.082;2023-03-14T16:33:14;98955.13;;;13.81;93.80
61014;BME280;46899;47.542;19.082;2023-03-14T16:36:17;98952.84;;;13.77;94.28
61014;BME280;46899;47.542;19.082;2023-03-14T16:39:20;98949.19;;;13.66;96.44
61014;BME280;46899;47.542;19.082;2023-03-14T16:42:23;98947.34;;;13.43;99.39
61014;BME280;46899;47.542;19.082;2023-03-14T16:45:25;98959.69;;;13.41;100.00
61014;BME280;46899;47.542;19.082;2023-03-14T16:48:28;98981.00;;;13.23;100.00
61014;BME280;46899;47.542;19.082;2023-03-14T16:51:31;98975.19;;;13.05;100.00
61014;BME280;46899;47.542;19.082;2023-03-14T16:54:34;98990.44;;;12.98;100.00
61014;BME280;46899;47.542;19.082;2023-03-14T16:57:36;99001.38;;;12.91;100.00
61014;BME280;46899;47.542;19.082;2023-03-14T17:00:40;99006.69;;;12.77;100.00
61014;BME280;46899;47.542;19.082;2023-03-14T17:03:43;99017.34;;;12.74;100.00
61014;BME280;46899;47.542;19.082;2023-03-14T17:06:46;99015.75;;;12.71;100.00
61014;BME280;46899;47.542;19.082;2023-03-14T17:09:49;99022.09;;;12.67;100.00
61014;BME280;46899;47.542;19.082;2023-03-14T17:12:53;99016.56;;;12.72;100.00
61014;BME280;46899;47.542;19.082;2023-03-14T17:15:56;99022.22;;;12.66;100.00
61014;BME280;46899;47.542;19.082;2023-03-14T17:18:59;99027.06;;;12.58;100.00